Time;durP1;ratioP1;P1;durP2;ratioP2;P2;SDS_P1;SDS_P2;PMS_P1;PMS_P2;Temp;Humidity;BMP_temperature;BMP_pressure;BME280_temperature;BME280_humidity;BME280_pressure;Samples;Min_cycle;Max_cycle;Signal;HPM_P1;HPM_P2
2022/11/29 00:01:20;;;;;;;;;;;;;;;16.59;44.80;101651.56;102098;1329;62253;-83
2022/11/29 00:03:45;;;;;;;;;;;;;;;16.59;44.76;101652.98;102103;1329;62099;-84
2022/11/29 00:06:12;;;;;;;;;;;;;;;16.59;44.78;101653.51;102117;1325;62132;-83
2022/11/29 00:08:37;;;;;;;;;;;;;;;16.59;44.81;101654.25;102091;1331;62123;-83
2022/11/29 00:11:04;;;;;;;;;;;;;;;16.59;44.72;101652.45;102148;1325;62120;-84
2022/11/29 00:13:29;;;;;;;;;;;;;;;16.59;44.90;101650.15;102087;1327;73563;-83
2022/11/29 00:15:54;;;;;;;;;;;;;;;16.59;44.84;101651.02;102147;1327;62201;-84
2022/11/29 00:18:20;;;;;;;;;;;;;;;16.58;44.88;101651.06;102171;1330;62124;-84
2022/11/29 00:20:45;;;;;;;;;;;;;;;16.58;44.82;101646.45;102097;1330;62131;-84
2022/11/29 00:23:11;;;;;;;;;;;;;;;16.58;44.81;101649.11;102126;1331;62119;-84
2022/11/29 00:25:37;;;;;;;;;;;;;;;16.58;44.81;101651.95;102100;1325;62129;-83
2022/11/29 00:28:02;;;;;;;;;;;;;;;16.58;44.88;101656.04;102097;1325;62183;-83
2022/11/29 00:30:28;;;;;;;;;;;;;;;16.59;44.86;101652.46;102095;1322;62172;-83
2022/11/29 00:32:53;;;;;;;;;;;;;;;16.58;44.80;101647.49;102179;1325;62222;-83
2022/11/29 00:35:18;;;;;;;;;;;;;;;16.58;44.76;101647.70;102161;1326;62232;-84
2022/11/29 00:37:44;;;;;;;;;;;;;;;16.59;44.81;101646.61;102100;1329;62133;-84
2022/11/29 00:40:09;;;;;;;;;;;;;;;16.58;44.84;101635.77;102087;1329;62182;-83
2022/11/29 00:42:35;;;;;;;;;;;;;;;16.58;44.84;101633.12;102109;1327;62135;-84
2022/11/29 00:45:00;;;;;;;;;;;;;;;16.58;44.87;101636.69;102095;1330;62134;-83
2022/11/29 00:47:26;;;;;;;;;;;;;;;16.58;44.78;101634.38;102135;1326;62254;-84
2022/11/29 00:49:51;;;;;;;;;;;;;;;16.58;44.79;101637.58;102115;1326;62128;-84
2022/11/29 00:52:16;;;;;;;;;;;;;;;16.57;44.87;101632.26;102155;1326;62104;-83
2022/11/29 00:54:42;;;;;;;;;;;;;;;16.57;44.77;101628.34;102095;1325;62136;-84
2022/11/29 00:57:07;;;;;;;;;;;;;;;16.57;44.81;101624.45;102090;1326;62204;-84
2022/11/29 00:59:33;;;;;;;;;;;;;;;16.57;44.84;101616.80;102144;1329;62108;-84
2022/11/29 01:01:58;;;;;;;;;;;;;;;16.57;44.85;101615.58;102114;1331;62142;-83
2022/11/29 01:04:23;;;;;;;;;;;;;;;16.57;44.86;101614.50;102135;1332;62084;-83
2022/11/29 01:06:50;;;;;;;;;;;;;;;16.57;44.78;101620.56;102126;1332;62261;-83
2022/11/29 01:09:15;;;;;;;;;;;;;;;16.57;44.92;101620.90;102113;1325;62017;-84
2022/11/29 01:11:40;;;;;;;;;;;;;;;16.57;44.90;101621.80;102125;1319;62131;-84
2022/11/29 01:14:06;;;;;;;;;;;;;;;16.57;44.89;101621.08;102108;1325;62128;-83
2022/11/29 01:16:31;;;;;;;;;;;;;;;16.57;44.84;101625.54;102144;1331;62203;-83
2022/11/29 01:18:57;;;;;;;;;;;;;;;16.57;44.79;101621.45;102141;1332;62214;-84
2022/11/29 01:21:22;;;;;;;;;;;;;;;16.57;44.86;101616.65;102123;1330;62138;-83
2022/11/29 01:23:48;;;;;;;;;;;;;;;16.56;44.80;101619.33;102175;1325;62223;-83
2022/11/29 01:26:15;;;;;;;;;;;;;;;16.56;44.78;101624.12;102165;1326;72660;-83
2022/11/29 01:28:40;;;;;;;;;;;;;;;16.56;44.85;101625.02;102069;1331;75755;-83
2022/11/29 01:31:06;;;;;;;;;;;;;;;16.56;44.88;101622.54;102128;1326;63303;-84
2022/11/29 01:33:32;;;;;;;;;;;;;;;16.56;44.97;101620.77;102158;1326;62093;-84
2022/11/29 01:35:57;;;;;;;;;;;;;;;16.56;44.87;101620.40;102092;1329;62289;-83
2022/11/29 01:38:22;;;;;;;;;;;;;;;16.56;44.91;101617.56;102111;1326;59799;-84
2022/11/29 01:40:58;;;;;;;;;;;;;;;16.56;44.86;101618.10;102121;1326;76395;-83
2022/11/29 01:43:23;;;;;;;;;;;;;;;16.56;44.85;101609.94;102109;1326;62087;-84
2022/11/29 01:45:49;;;;;;;;;;;;;;;16.56;44.97;101606.02;102119;1329;62207;-84
2022/11/29 01:48:14;;;;;;;;;;;;;;;16.56;44.86;101600.86;102114;1325;62128;-84
2022/11/29 01:50:40;;;;;;;;;;;;;;;16.55;44.85;101597.69;102095;1325;62188;-84
2022/11/29 01:53:05;;;;;;;;;;;;;;;16.56;44.95;101604.06;102147;1329;62126;-84
2022/11/29 01:55:31;;;;;;;;;;;;;;;16.55;44.94;101604.95;102138;1324;62104;-84
2022/11/29 01:57:56;;;;;;;;;;;;;;;16.55;44.80;101611.90;102104;1325;62286;-84
2022/11/29 02:00:22;;;;;;;;;;;;;;;16.55;44.87;101612.79;102071;1325;62123;-84
2022/11/29 02:03:09;;;;;;;;;;;;;;;16.55;44.90;101611.36;102094;1325;62132;-83
2022/11/29 02:05:35;;;;;;;;;;;;;;;16.55;44.91;101612.26;102120;1325;62017;-83
2022/11/29 02:08:03;;;;;;;;;;;;;;;16.55;44.94;101609.77;102135;1332;60094;-83
2022/11/29 02:10:37;;;;;;;;;;;;;;;16.55;44.87;101608.55;102114;1326;73426;-82
2022/11/29 02:13:18;;;;;;;;;;;;;;;16.55;44.90;101612.09;102157;1330;75347;-83
2022/11/29 02:16:03;;;;;;;;;;;;;;;16.55;44.80;101614.23;102182;1320;61996;-84
2022/11/29 02:18:32;;;;;;;;;;;;;;;16.55;44.94;101622.23;102103;1327;62198;-84
2022/11/29 02:21:07;;;;;;;;;;;;;;;16.55;44.86;101620.27;102171;1332;72493;-83
2022/11/29 02:23:51;;;;;;;;;;;;;;;16.55;44.88;101618.31;102174;1325;76324;-83
2022/11/29 02:26:37;;;;;;;;;;;;;;;16.55;44.86;101611.55;102185;1332;62140;-84
2022/11/29 02:29:21;;;;;;;;;;;;;;;16.55;44.96;101611.39;102187;1332;62095;-84
2022/11/29 02:31:53;;;;;;;;;;;;;;;16.55;44.85;101616.36;102169;1325;72702;-84
2022/11/29 02:34:37;;;;;;;;;;;;;;;16.55;44.90;101618.50;102117;1325;75437;-84
2022/11/29 02:37:18;;;;;;;;;;;;;;;16.54;44.90;101618.70;102054;1328;62128;-84
2022/11/29 02:39:56;;;;;;;;;;;;;;;16.54;44.98;101619.05;102166;1329;62061;-83
2022/11/29 02:42:24;;;;;;;;;;;;;;;16.54;44.89;101615.50;102120;1323;72768;-84
2022/11/29 02:44:50;;;;;;;;;;;;;;;16.54;44.92;101610.73;102128;1325;75285;-84
2022/11/29 02:47:25;;;;;;;;;;;;;;;16.54;44.91;101611.96;102124;1331;62204;-83
2022/11/29 02:50:05;;;;;;;;;;;;;;;16.54;44.93;101611.24;102168;1323;62084;-81
2022/11/29 02:52:34;;;;;;;;;;;;;;;16.54;44.89;101614.27;102085;1332;72344;-84
2022/11/29 02:55:03;;;;;;;;;;;;;;;16.53;44.91;101617.84;102116;1331;75466;-83
2022/11/29 02:57:44;;;;;;;;;;;;;;;16.53;44.86;101623.36;102187;1325;62202;-84
2022/11/29 03:00:13;;;;;;;;;;;;;;;16.53;44.90;101619.98;102138;1325;62041;-84
2022/11/29 03:02:41;;;;;;;;;;;;;;;16.54;44.83;101622.98;102060;1328;73673;-84
2022/11/29 03:05:26;;;;;;;;;;;;;;;16.53;44.95;101623.00;102118;1325;75293;-83
2022/11/29 03:07:59;;;;;;;;;;;;;;;16.53;44.88;101622.48;102119;1325;62005;-83
2022/11/29 03:10:39;;;;;;;;;;;;;;;16.53;44.97;101623.52;102089;1323;62134;-83
2022/11/29 03:13:06;;;;;;;;;;;;;;;16.53;44.90;101619.98;102065;1329;73481;-83
2022/11/29 03:15:38;;;;;;;;;;;;;;;16.53;44.89;101618.22;102098;1329;76557;-84
2022/11/29 03:18:06;;;;;;;;;;;;;;;16.53;44.93;101615.56;102118;1325;62000;-83
2022/11/29 03:20:35;;;;;;;;;;;;;;;16.53;44.88;101619.45;102116;1325;62257;-84
2022/11/29 03:23:13;;;;;;;;;;;;;;;16.53;44.91;101618.75;102106;1325;73556;-83
2022/11/29 03:25:56;;;;;;;;;;;;;;;16.53;44.92;101616.80;102065;1332;76423;-83
2022/11/29 03:28:30;;;;;;;;;;;;;;;16.53;44.89;101618.56;102070;1330;61999;-84
2022/11/29 03:30:55;;;;;;;;;;;;;;;16.53;44.94;101616.45;102100;1325;62011;-83
2022/11/29 03:33:20;;;;;;;;;;;;;;;16.52;44.97;101611.83;102148;1328;62137;-83
2022/11/29 03:35:46;;;;;;;;;;;;;;;16.52;44.95;101613.80;102144;1329;62240;-83
2022/11/29 03:38:20;;;;;;;;;;;;;;;16.52;44.97;101611.48;102170;1319;62135;-84
2022/11/29 03:40:53;;;;;;;;;;;;;;;16.52;44.91;101608.98;102177;1324;62649;-84
2022/11/29 03:43:37;;;;;;;;;;;;;;;16.52;44.95;101612.38;102159;1316;72307;-82
2022/11/29 03:46:04;;;;;;;;;;;;;;;16.52;44.95;101611.50;102196;1325;76562;-84
2022/11/29 03:48:32;;;;;;;;;;;;;;;16.52;44.92;101612.89;102123;1325;61918;-84
2022/11/29 03:51:02;;;;;;;;;;;;;;;16.52;45.04;101609.89;102190;1326;61956;-84
2022/11/29 03:53:47;;;;;;;;;;;;;;;16.52;44.97;101610.79;102094;1327;72657;-83
2022/11/29 03:56:24;;;;;;;;;;;;;;;16.52;44.99;101611.67;102172;1325;76323;-84
2022/11/29 03:59:11;;;;;;;;;;;;;;;16.52;44.94;101611.84;102192;1325;62586;-83
2022/11/29 04:01:53;;;;;;;;;;;;;;;16.52;45.00;101614.69;102114;1330;62398;-83
2022/11/29 04:04:37;;;;;;;;;;;;;;;16.52;44.99;101611.33;102189;1325;73555;-83
2022/11/29 04:07:15;;;;;;;;;;;;;;;16.52;45.00;101613.29;102177;1329;76340;-83
2022/11/29 04:09:56;;;;;;;;;;;;;;;16.52;44.95;101609.91;102200;1326;62498;-83
2022/11/29 04:12:34;;;;;;;;;;;;;;;16.52;44.99;101607.25;102118;1325;62196;-84
2022/11/29 04:15:06;;;;;;;;;;;;;;;16.51;44.91;101608.50;102156;1326;72461;-83
2022/11/29 04:17:32;;;;;;;;;;;;;;;16.51;44.96;101608.14;102096;1319;76207;-83
2022/11/29 04:20:08;;;;;;;;;;;;;;;16.51;44.97;101609.03;102169;1326;62098;-83
2022/11/29 04:22:52;;;;;;;;;;;;;;;16.51;45.01;101608.52;102187;1323;61830;-83
2022/11/29 04:25:27;;;;;;;;;;;;;;;16.51;44.91;101612.07;102158;1325;72315;-82
2022/11/29 04:27:56;;;;;;;;;;;;;;;16.51;44.95;101616.88;101972;1325;74158;-83
2022/11/29 04:30:22;;;;;;;;;;;;;;;16.51;44.95;101612.07;102119;1329;62503;-83
2022/11/29 04:33:17;;;;;;;;;;;;;;;16.51;44.84;101616.70;102072;1319;62198;-82
2022/11/29 04:35:47;;;;;;;;;;;;;;;16.51;44.89;101619.18;102041;1326;72578;-82
2022/11/29 04:38:20;;;;;;;;;;;;;;;16.51;44.94;101620.27;102143;1325;75412;-83
2022/11/29 04:40:49;;;;;;;;;;;;;;;16.51;44.96;101620.94;102133;1325;62012;-83
2022/11/29 04:43:14;;;;;;;;;;;;;;;16.51;44.97;101622.03;102094;1325;62050;-84
2022/11/29 04:45:46;;;;;;;;;;;;;;;16.51;44.95;101623.28;102113;1325;63367;-82
2022/11/29 04:48:26;;;;;;;;;;;;;;;16.51;44.91;101618.85;102106;1325;75374;-83
2022/11/29 04:51:02;;;;;;;;;;;;;;;16.50;45.01;101625.80;102032;1326;63225;-83
2022/11/29 04:53:43;;;;;;;;;;;;;;;16.50;44.98;101628.47;102096;1325;62194;-82
2022/11/29 04:56:22;;;;;;;;;;;;;;;16.50;44.95;101628.66;102121;1325;73463;-83
2022/11/29 04:58:53;;;;;;;;;;;;;;;16.50;44.98;101626.69;102102;1325;74445;-83
2022/11/29 05:01:29;;;;;;;;;;;;;;;16.50;44.93;101627.22;102121;1325;62096;-82
2022/11/29 05:04:06;;;;;;;;;;;;;;;16.50;45.00;101632.20;102039;1327;61977;-82
2022/11/29 05:06:36;;;;;;;;;;;;;;;16.50;44.93;101630.25;102151;1331;73561;-83
2022/11/29 05:09:01;;;;;;;;;;;;;;;16.49;44.94;101626.71;102072;1315;75232;-82
2022/11/29 05:11:33;;;;;;;;;;;;;;;16.49;44.98;101629.73;102143;1325;62072;-82
2022/11/29 05:14:07;;;;;;;;;;;;;;;16.49;45.03;101627.78;102115;1326;62956;-86
2022/11/29 05:16:33;;;;;;;;;;;;;;;16.49;45.01;101625.48;102123;1325;73568;-84
2022/11/29 05:19:07;;;;;;;;;;;;;;;16.48;44.95;101626.05;102111;1325;62141;-85
2022/11/29 05:21:42;;;;;;;;;;;;;;;16.47;44.94;101625.02;102146;1325;61997;-84
2022/11/29 05:24:23;;;;;;;;;;;;;;;16.47;44.98;101623.09;102093;1328;62140;-85
2022/11/29 05:27:09;;;;;;;;;;;;;;;16.46;44.92;101630.05;102113;1323;73680;-85
2022/11/29 05:29:42;;;;;;;;;;;;;;;16.45;44.94;101632.38;101883;1317;75472;-85
2022/11/29 05:32:07;;;;;;;;;;;;;;;16.43;44.98;101633.88;102004;1312;61979;-85
2022/11/29 05:34:33;;;;;;;;;;;;;;;16.43;44.93;101635.30;102048;1328;62191;-85
2022/11/29 05:37:01;;;;;;;;;;;;;;;16.42;45.00;101633.36;102061;1326;62135;-84
2022/11/29 05:39:32;;;;;;;;;;;;;;;16.43;44.97;101636.55;101980;1317;62022;-84
2022/11/29 05:41:57;;;;;;;;;;;;;;;16.42;44.90;101639.23;101979;1317;62030;-85
2022/11/29 05:44:28;;;;;;;;;;;;;;;16.42;44.92;101637.64;102054;1309;62055;-85
2022/11/29 05:46:58;;;;;;;;;;;;;;;16.41;44.80;101638.38;102074;1317;72887;-84
2022/11/29 05:49:42;;;;;;;;;;;;;;;16.41;44.84;101638.94;102071;1326;75281;-84
2022/11/29 05:52:21;;;;;;;;;;;;;;;16.40;44.78;101637.91;101361;1317;918409;-84
2022/11/29 05:55:02;;;;;;;;;;;;;;;16.38;44.81;101640.11;102012;1317;61921;-84
2022/11/29 05:57:42;;;;;;;;;;;;;;;16.37;44.73;101639.61;102006;1312;73555;-83
2022/11/29 06:00:09;;;;;;;;;;;;;;;16.38;44.75;101640.83;101967;1312;76367;-84
2022/11/29 06:02:55;;;;;;;;;;;;;;;16.38;44.70;101640.63;101473;1313;62146;-83
2022/11/29 06:05:25;;;;;;;;;;;;;;;16.39;44.65;101639.17;101496;1316;64200;-82
2022/11/29 06:08:00;;;;;;;;;;;;;;;16.39;44.56;101643.96;101686;1317;73988;-83
2022/11/29 06:10:31;;;;;;;;;;;;;;;16.39;44.55;101650.73;101602;1321;75476;-83
2022/11/29 06:13:12;;;;;;;;;;;;;;;16.39;44.59;101655.54;101768;1312;62055;-84
2022/11/29 06:15:47;;;;;;;;;;;;;;;16.39;44.56;101654.45;101763;1317;62195;-82
2022/11/29 06:18:22;;;;;;;;;;;;;;;16.40;44.62;101651.59;101783;1319;73551;-84
2022/11/29 06:20:57;;;;;;;;;;;;;;;16.42;44.54;101658.61;101702;1320;76259;-83
2022/11/29 06:23:23;;;;;;;;;;;;;;;16.43;44.57;101662.83;101925;1309;62170;-83
2022/11/29 06:26:24;;;;;;;;;;;;;;;16.45;44.52;101663.29;101456;1309;62128;-81
2022/11/29 06:29:12;;;;;;;;;;;;;;;16.48;44.37;101666.23;101555;1309;73710;-83
2022/11/29 06:31:38;;;;;;;;;;;;;;;16.51;44.44;101665.38;101562;1316;75419;-82
2022/11/29 06:34:22;;;;;;;;;;;;;;;16.53;44.46;101666.92;101654;1312;62084;-82
2022/11/29 06:37:11;;;;;;;;;;;;;;;16.54;44.54;101667.23;101788;1317;62319;-82
2022/11/29 06:40:00;;;;;;;;;;;;;;;16.55;44.56;101665.23;101730;1309;72779;-82
2022/11/29 06:42:25;;;;;;;;;;;;;;;16.55;44.68;101664.86;101342;1323;75448;-82
2022/11/29 06:44:51;;;;;;;;;;;;;;;16.56;44.58;101663.78;101179;1318;62195;-83
2022/11/29 06:47:18;;;;;;;;;;;;;;;16.56;44.68;101663.92;101277;1318;62067;-82
2022/11/29 06:49:50;;;;;;;;;;;;;;;16.57;44.65;101667.80;101152;1325;64691;-81
2022/11/29 06:52:25;;;;;;;;;;;;;;;16.59;44.57;101672.55;101020;1324;75213;-81
2022/11/29 06:55:00;;;;;;;;;;;;;;;16.61;44.49;101673.02;101067;1321;62047;-83
2022/11/29 06:57:58;;;;;;;;;;;;;;;16.63;44.49;101670.98;102581;1322;60256;-82
2022/11/29 07:00:27;;;;;;;;;;;;;;;16.67;44.67;101671.34;100987;1327;73401;-83
2022/11/29 07:03:11;;;;;;;;;;;;;;;16.74;44.72;101671.98;100610;1331;75449;-83
2022/11/29 07:05:36;;;;;;;;;;;;;;;16.77;44.76;101671.85;100759;1330;62049;-85
2022/11/29 07:08:04;;;;;;;;;;;;;;;16.78;44.69;101668.25;100857;1321;62300;-84
2022/11/29 07:10:32;;;;;;;;;;;;;;;16.78;44.85;101668.26;100887;1328;72752;-83
2022/11/29 07:12:57;;;;;;;;;;;;;;;16.78;44.75;101667.03;100860;1321;75405;-83
2022/11/29 07:15:26;;;;;;;;;;;;;;;16.77;44.83;101670.98;100730;1328;62311;-83
2022/11/29 07:18:05;;;;;;;;;;;;;;;16.76;44.69;101673.13;100783;1330;62208;-84
2022/11/29 07:20:31;;;;;;;;;;;;;;;16.75;44.66;101678.51;101138;1322;71684;-84
2022/11/29 07:23:09;;;;;;;;;;;;;;;16.74;44.68;101681.19;101390;1322;62101;-83
2022/11/29 07:25:35;;;;;;;;;;;;;;;16.74;44.70;101679.95;101351;1325;62676;-85
2022/11/29 07:28:04;;;;;;;;;;;;;;;16.75;44.61;101672.27;101362;1323;62134;-83
2022/11/29 07:30:35;;;;;;;;;;;;;;;16.76;44.70;101677.75;101387;1315;72587;-83
2022/11/29 07:33:13;;;;;;;;;;;;;;;16.77;44.66;101673.46;101328;1323;74300;-84
2022/11/29 07:35:48;;;;;;;;;;;;;;;16.78;44.76;101673.05;101215;1323;62083;-83
2022/11/29 07:38:19;;;;;;;;;;;;;;;16.79;44.72;101672.31;101636;1317;62039;-83
2022/11/29 07:40:51;;;;;;;;;;;;;;;16.80;44.62;101672.44;101711;1317;72607;-83
2022/11/29 07:43:33;;;;;;;;;;;;;;;16.81;44.74;101669.38;101616;1312;75345;-84
2022/11/29 07:45:58;;;;;;;;;;;;;;;16.82;44.74;101663.98;101634;1312;62037;-84
2022/11/29 07:48:25;;;;;;;;;;;;;;;16.84;44.76;101665.71;101576;1316;62158;-83
2022/11/29 07:50:51;;;;;;;;;;;;;;;16.84;44.87;101668.00;101615;1309;62132;-84
2022/11/29 07:53:18;;;;;;;;;;;;;;;16.86;44.77;101666.18;101323;1312;62122;-82
2022/11/29 07:55:44;;;;;;;;;;;;;;;16.86;44.87;101667.77;101476;1312;62177;-83
2022/11/29 07:58:13;;;;;;;;;;;;;;;16.78;44.68;101662.21;101447;1316;60350;-83
2022/11/29 08:00:41;;;;;;;;;;;;;;;16.74;44.71;101658.98;101624;1312;72534;-84
2022/11/29 08:03:06;;;;;;;;;;;;;;;16.72;44.83;101660.45;101449;1312;76628;-82
2022/11/29 08:05:31;;;;;;;;;;;;;;;16.73;44.98;101654.58;101516;1312;62206;-82
2022/11/29 08:07:58;;;;;;;;;;;;;;;16.74;45.14;101658.27;101601;1309;62225;-82
2022/11/29 08:10:26;;;;;;;;;;;;;;;16.77;45.23;101658.86;101454;1313;62143;-83
2022/11/29 08:12:51;;;;;;;;;;;;;;;16.82;45.29;101656.90;101470;1315;62321;-82
2022/11/29 08:15:17;;;;;;;;;;;;;;;16.87;45.30;101659.01;101348;1312;62219;-84
2022/11/29 08:17:43;;;;;;;;;;;;;;;16.92;45.36;101659.04;101454;1312;62021;-83
2022/11/29 08:20:08;;;;;;;;;;;;;;;16.96;45.50;101659.06;101381;1316;62277;-83
2022/11/29 08:22:34;;;;;;;;;;;;;;;16.98;45.50;101658.09;101642;1309;62243;-83
2022/11/29 08:25:00;;;;;;;;;;;;;;;17.00;45.63;101659.95;101478;1312;62088;-85
2022/11/29 08:27:25;;;;;;;;;;;;;;;17.02;45.61;101658.29;101449;1317;62153;-83
2022/11/29 08:29:51;;;;;;;;;;;;;;;17.02;45.58;101660.74;101570;1312;62128;-83
2022/11/29 08:32:16;;;;;;;;;;;;;;;17.02;45.70;101661.27;101594;1316;62207;-83
2022/11/29 08:34:41;;;;;;;;;;;;;;;17.03;45.65;101665.54;101706;1309;62198;-83
2022/11/29 08:37:08;;;;;;;;;;;;;;;17.01;45.81;101660.62;101702;1309;76324;-82
2022/11/29 08:39:33;;;;;;;;;;;;;;;16.99;45.86;101657.52;101706;1309;62018;-82
2022/11/29 08:41:59;;;;;;;;;;;;;;;16.96;45.84;101653.54;101731;1317;62054;-82
2022/11/29 08:44:25;;;;;;;;;;;;;;;16.90;45.91;101648.58;101604;1312;62186;-82
2022/11/29 08:49:59;;;;;;;;;;;;;;;16.83;46.21;101640.32;101620;1309;62117;-82
2022/11/29 08:55:05;;;;;;;;;;;;;;;16.77;46.24;101640.59;101638;1309;72689;-84
2022/11/29 08:57:32;;;;;;;;;;;;;;;16.72;46.37;101634.73;101505;1314;62112;-83
2022/11/29 08:59:58;;;;;;;;;;;;;;;16.68;46.35;101636.49;101510;1316;62187;-84
2022/11/29 09:02:23;;;;;;;;;;;;;;;16.61;46.50;101627.89;101489;1316;62117;-85
2022/11/29 09:04:52;;;;;;;;;;;;;;;16.49;46.32;101628.14;101516;1310;62581;-82
2022/11/29 09:07:17;;;;;;;;;;;;;;;16.40;46.31;101628.29;101493;1317;76190;-84
2022/11/29 09:09:43;;;;;;;;;;;;;;;16.38;46.38;101630.34;101506;1316;64431;-83
2022/11/29 09:12:08;;;;;;;;;;;;;;;16.38;46.40;101630.51;101428;1312;62121;-82
2022/11/29 09:14:35;;;;;;;;;;;;;;;16.37;46.45;101632.33;101446;1315;62135;-82
2022/11/29 09:17:01;;;;;;;;;;;;;;;16.37;46.49;101631.97;101500;1310;62237;-82
2022/11/29 09:19:26;;;;;;;;;;;;;;;16.39;46.59;101625.15;101523;1309;62224;-82
2022/11/29 09:21:52;;;;;;;;;;;;;;;16.41;46.73;101627.02;101442;1312;62065;-83
2022/11/29 09:24:19;;;;;;;;;;;;;;;16.46;46.76;101625.23;101570;1316;62292;-82
2022/11/29 09:26:49;;;;;;;;;;;;;;;16.50;46.84;101627.05;101333;1315;62158;-82
2022/11/29 09:29:14;;;;;;;;;;;;;;;16.55;46.82;101625.98;101578;1316;75316;-84
2022/11/29 09:31:40;;;;;;;;;;;;;;;16.61;46.87;101624.33;101504;1317;62115;-82
2022/11/29 09:34:05;;;;;;;;;;;;;;;16.66;47.02;101619.66;101591;1315;62146;-82
2022/11/29 09:36:31;;;;;;;;;;;;;;;16.70;47.02;101615.59;101717;1309;62162;-82
2022/11/29 09:38:57;;;;;;;;;;;;;;;16.74;47.02;101615.60;101645;1309;62121;-83
2022/11/29 09:41:28;;;;;;;;;;;;;;;16.78;47.27;101613.52;101553;1317;75244;-82
2022/11/29 09:43:59;;;;;;;;;;;;;;;16.82;47.22;101612.65;101670;1309;62087;-83
2022/11/29 09:46:30;;;;;;;;;;;;;;;16.84;47.16;101601.69;101543;1316;62151;-82
2022/11/29 09:48:55;;;;;;;;;;;;;;;16.87;47.23;101599.78;101734;1313;72554;-82
2022/11/29 09:51:22;;;;;;;;;;;;;;;16.89;47.36;101596.01;101664;1309;62194;-82
2022/11/29 09:54:06;;;;;;;;;;;;;;;16.91;47.34;101589.02;101907;1315;62835;-81
2022/11/29 09:56:34;;;;;;;;;;;;;;;16.92;47.40;101583.61;101749;1315;62324;-82
2022/11/29 09:59:04;;;;;;;;;;;;;;;16.95;47.40;101576.43;101598;1313;72647;-81
2022/11/29 10:01:31;;;;;;;;;;;;;;;16.96;47.42;101577.95;101538;1309;76523;-83
2022/11/29 10:03:58;;;;;;;;;;;;;;;16.92;47.32;101577.23;101193;1317;62093;-82
2022/11/29 10:06:37;;;;;;;;;;;;;;;16.78;47.19;101575.45;101551;1312;61204;-82
2022/11/29 10:09:04;;;;;;;;;;;;;;;16.72;47.21;101574.81;102873;1322;72783;-83
2022/11/29 10:11:33;;;;;;;;;;;;;;;16.68;47.41;101567.66;101887;1309;75013;-84
2022/11/29 10:14:19;;;;;;;;;;;;;;;16.68;47.36;101565.04;101518;1314;62124;-84
2022/11/29 10:16:48;;;;;;;;;;;;;;;16.62;47.12;101563.14;101771;1310;62266;-84
2022/11/29 10:19:17;;;;;;;;;;;;;;;16.48;46.89;101562.63;101549;1316;73797;-85
2022/11/29 10:21:44;;;;;;;;;;;;;;;16.33;46.82;101570.30;101492;1309;75435;-84
2022/11/29 10:24:12;;;;;;;;;;;;;;;16.17;46.67;101576.08;101473;1309;61915;-84
2022/11/29 10:26:39;;;;;;;;;;;;;;;16.13;46.73;101581.92;101601;1315;62045;-84
2022/11/29 10:29:04;;;;;;;;;;;;;;;16.15;46.68;101577.38;101517;1319;72472;-84
2022/11/29 10:31:38;;;;;;;;;;;;;;;16.18;46.62;101573.74;101337;1312;62111;-84
2022/11/29 10:34:31;;;;;;;;;;;;;;;16.21;46.50;101575.20;102892;1319;60323;-86
2022/11/29 10:36:58;;;;;;;;;;;;;;;16.29;46.52;101577.93;101916;1309;62153;-85
2022/11/29 10:39:38;;;;;;;;;;;;;;;16.36;46.53;101578.36;101552;1318;72671;-84
2022/11/29 10:45:20;;;;;;;;;;;;;;;16.51;46.40;101585.23;102050;1317;62399;-82
2022/11/29 10:47:46;;;;;;;;;;;;;;;16.55;46.29;101581.17;102085;1320;61968;-83
2022/11/29 10:50:27;;;;;;;;;;;;;;;16.58;46.25;101582.65;101954;1309;62085;-83
2022/11/29 10:52:58;;;;;;;;;;;;;;;16.62;46.39;101578.93;102120;1317;75315;-85
2022/11/29 10:55:23;;;;;;;;;;;;;;;16.69;46.30;101575.45;102056;1317;62161;-83
2022/11/29 10:58:08;;;;;;;;;;;;;;;16.76;46.40;101570.56;101989;1311;59739;-83
2022/11/29 11:00:49;;;;;;;;;;;;;;;16.82;46.31;101574.77;102023;1315;72497;-82
2022/11/29 11:03:26;;;;;;;;;;;;;;;16.85;46.28;101571.95;101946;1313;76375;-84
2022/11/29 11:06:02;;;;;;;;;;;;;;;16.86;46.27;101568.38;102107;1319;61917;-84
2022/11/29 11:08:28;;;;;;;;;;;;;;;16.80;46.20;101567.04;102120;1320;60388;-83
2022/11/29 11:10:54;;;;;;;;;;;;;;;16.78;46.35;101565.68;101928;1317;61019;-83
2022/11/29 11:13:23;;;;;;;;;;;;;;;16.80;46.27;101565.60;101977;1323;61496;-82
2022/11/29 11:15:54;;;;;;;;;;;;;;;16.78;46.21;101564.06;101968;1320;60904;-82
2022/11/29 11:18:21;;;;;;;;;;;;;;;16.75;46.27;101564.73;101978;1309;61995;-84
2022/11/29 11:20:54;;;;;;;;;;;;;;;16.75;46.18;101570.61;101944;1316;72667;-85
2022/11/29 11:23:26;;;;;;;;;;;;;;;16.75;46.25;101576.45;101972;1318;76515;-85
2022/11/29 11:25:55;;;;;;;;;;;;;;;16.75;46.20;101574.50;102089;1319;61953;-84
2022/11/29 11:28:44;;;;;;;;;;;;;;;16.74;46.19;101572.92;102089;1317;60489;-84
2022/11/29 11:31:09;;;;;;;;;;;;;;;16.71;46.16;101569.36;102018;1319;73839;-84
2022/11/29 11:33:36;;;;;;;;;;;;;;;16.67;46.17;101572.54;102068;1317;62101;-83
2022/11/29 11:36:05;;;;;;;;;;;;;;;16.62;46.15;101563.84;102036;1319;60836;-85
2022/11/29 11:38:31;;;;;;;;;;;;;;;16.62;46.19;101563.85;101998;1311;61865;-82
2022/11/29 11:41:01;;;;;;;;;;;;;;;16.62;46.11;101564.37;102005;1320;62126;-82
2022/11/29 11:43:28;;;;;;;;;;;;;;;16.64;46.20;101562.35;101911;1315;75796;-83
2022/11/29 11:45:53;;;;;;;;;;;;;;;16.67;46.18;101560.98;101971;1309;61989;-83
2022/11/29 11:48:18;;;;;;;;;;;;;;;16.69;46.17;101560.16;101934;1312;62214;-83
2022/11/29 11:50:48;;;;;;;;;;;;;;;16.71;46.18;101560.63;101853;1319;62086;-82
2022/11/29 11:53:40;;;;;;;;;;;;;;;16.75;46.19;101559.73;102074;1325;75305;-83
2022/11/29 11:56:06;;;;;;;;;;;;;;;16.83;46.17;101558.19;101905;1312;60189;-84
2022/11/29 11:58:35;;;;;;;;;;;;;;;16.87;46.08;101562.45;101949;1319;60780;-84
2022/11/29 12:01:13;;;;;;;;;;;;;;;16.88;46.16;101565.11;101887;1317;72628;-85
2022/11/29 12:03:43;;;;;;;;;;;;;;;16.87;46.06;101560.15;102066;1325;75522;-86
2022/11/29 12:06:29;;;;;;;;;;;;;;;16.75;46.03;101561.20;102832;1318;61163;-83
2022/11/29 12:09:03;;;;;;;;;;;;;;;16.65;46.14;101554.33;102865;1317;60192;-84
2022/11/29 12:11:59;;;;;;;;;;;;;;;16.62;46.01;101553.73;102881;1333;72669;-84
2022/11/29 12:14:27;;;;;;;;;;;;;;;16.56;46.07;101551.09;102855;1333;76469;-84
2022/11/29 12:16:54;;;;;;;;;;;;;;;16.53;46.20;101558.16;102880;1333;60037;-84
2022/11/29 12:19:21;;;;;;;;;;;;;;;16.47;46.14;101553.60;102053;1315;60775;-83
2022/11/29 12:21:47;;;;;;;;;;;;;;;16.46;46.08;101551.31;101988;1312;71978;-84
2022/11/29 12:24:13;;;;;;;;;;;;;;;16.47;46.11;101550.40;102215;1317;62124;-83
2022/11/29 12:26:39;;;;;;;;;;;;;;;16.45;46.17;101548.54;102107;1318;62172;-84
2022/11/29 12:29:09;;;;;;;;;;;;;;;16.46;46.12;101550.98;102068;1320;62122;-84
2022/11/29 12:31:35;;;;;;;;;;;;;;;16.47;46.09;101554.48;101963;1326;73814;-83
2022/11/29 12:34:19;;;;;;;;;;;;;;;16.47;46.03;101545.98;102094;1316;62130;-84
2022/11/29 12:36:56;;;;;;;;;;;;;;;16.40;45.86;101548.34;102042;1324;62137;-85
2022/11/29 12:39:33;;;;;;;;;;;;;;;16.34;45.84;101544.67;101883;1320;61905;-84
2022/11/29 12:42:17;;;;;;;;;;;;;;;16.34;45.99;101546.29;101893;1322;73662;-84
2022/11/29 12:44:46;;;;;;;;;;;;;;;16.35;46.03;101544.63;101889;1325;74294;-84
2022/11/29 12:47:18;;;;;;;;;;;;;;;16.37;46.06;101542.27;102013;1317;60981;-84
2022/11/29 12:49:53;;;;;;;;;;;;;;;16.39;46.08;101540.55;101903;1319;61995;-83
2022/11/29 12:52:48;;;;;;;;;;;;;;;16.40;46.15;101543.18;101849;1326;73720;-84
2022/11/29 12:55:16;;;;;;;;;;;;;;;16.42;46.12;101536.92;101626;1317;75446;-84